Terminal Aerodrome Forecast
Issued by NWS Jackson, MS

Home | Current Version | Previous Version | Text Only | Print | Product List | Glossary On
Versions: 1 2 3 4 5 6 7 8 9 10 11 12
000
FTUS44 KJAN 200500
TAFGWO
TAF
KGWO 200529Z 2006/2106 05004KT P6SM SCT015 OVC060
     FM200800 03004KT P6SM OVC015
     FM201200 03005KT P6SM BKN025 BKN050
     FM201400 04003KT P6SM BKN050=

USA.gov is the U.S. government's official web portal to all federal, state and local government web resources and services.